Time;durP1;ratioP1;P1;durP2;ratioP2;P2;SDS_P1;SDS_P2;PMS_P1;PMS_P2;Temp;Humidity;BMP_temperature;BMP_pressure;BME280_temperature;BME280_humidity;BME280_pressure;Samples;Min_cycle;Max_cycle;Signal;HPM_P1;HPM_P2
2022/05/25 00:00:05;;;;;;;7.75;5.25;;;8.90;99.90;;;;;;5014506;28;20050;-76
2022/05/25 00:02:32;;;;;;;9.20;5.93;;;8.90;99.90;;;;;;5013048;28;20050;-75
2022/05/25 00:04:59;;;;;;;9.82;5.22;;;8.90;99.90;;;;;;5015232;28;20081;-75
2022/05/25 00:07:26;;;;;;;8.07;5.65;;;8.90;99.90;;;;;;5013829;28;20086;-74
2022/05/25 00:09:53;;;;;;;8.82;5.88;;;8.80;99.90;;;;;;5013418;28;20131;-75
2022/05/25 00:12:21;;;;;;;8.13;5.70;;;8.80;99.90;;;;;;5015194;28;20053;-75
2022/05/25 00:14:50;;;;;;;8.50;5.30;;;8.80;99.90;;;;;;5013560;28;20486;-75
2022/05/25 00:17:17;;;;;;;7.80;5.45;;;8.80;99.90;;;;;;5012910;28;20136;-75
2022/05/25 00:20:02;;;;;;;8.25;5.55;;;8.80;99.90;;;;;;5015568;28;20058;-74
2022/05/25 00:22:38;;;;;;;8.35;5.57;;;8.70;99.90;;;;;;5018196;28;20115;-74
2022/05/25 00:25:07;;;;;;;8.15;6.35;;;8.70;99.90;;;;;;5013969;28;20057;-75
2022/05/25 00:27:34;;;;;;;9.38;6.72;;;8.70;99.90;;;;;;5013905;28;20048;-75
2022/05/25 00:30:02;;;;;;;7.93;6.22;;;8.70;99.90;;;;;;5021518;28;20088;-75
2022/05/25 00:32:29;;;;;;;10.70;6.55;;;8.70;99.90;;;;;;5016188;28;20493;-74
2022/05/25 00:34:55;;;;;;;10.77;6.50;;;8.70;99.90;;;;;;5016117;28;20077;-75
2022/05/25 00:37:22;;;;;;;9.30;6.45;;;8.70;99.90;;;;;;5016193;28;20081;-75
2022/05/25 00:39:49;;;;;;;8.80;6.40;;;8.70;99.90;;;;;;5034678;28;20053;-74
2022/05/25 00:42:16;;;;;;;11.18;7.00;;;8.70;99.90;;;;;;5017047;28;20049;-74
2022/05/25 00:44:43;;;;;;;10.82;6.43;;;8.60;99.90;;;;;;5016139;28;20059;-76
2022/05/25 00:47:14;;;;;;;8.73;6.60;;;8.70;99.90;;;;;;5017014;28;20049;-76
2022/05/25 00:49:42;;;;;;;9.20;6.80;;;8.60;99.90;;;;;;5016307;28;20038;-75
2022/05/25 00:52:13;;;;;;;10.38;7.03;;;8.60;99.90;;;;;;5014950;28;20061;-76
2022/05/25 00:54:43;;;;;;;11.13;7.15;;;8.60;99.90;;;;;;5016531;28;20497;-76
2022/05/25 00:57:14;;;;;;;9.85;7.60;;;8.60;99.90;;;;;;5033985;28;20049;-76
2022/05/25 00:59:48;;;;;;;9.85;6.97;;;8.60;99.90;;;;;;5015630;28;20134;-76
2022/05/25 01:02:16;;;;;;;12.82;8.05;;;8.60;99.90;;;;;;5016531;28;20049;-76
2022/05/25 01:04:43;;;;;;;9.70;6.97;;;8.60;99.90;;;;;;5016996;28;20050;-76
2022/05/25 01:07:21;;;;;;;12.32;7.30;;;8.60;99.90;;;;;;5033557;28;20107;-76
2022/05/25 01:09:58;;;;;;;10.85;7.80;;;8.50;99.90;;;;;;5034405;28;20045;-75
2022/05/25 01:12:44;;;;;;;13.68;7.43;;;8.50;99.90;;;;;;5014921;28;20132;-76
2022/05/25 01:15:18;;;;;;;10.07;7.20;;;8.50;99.90;;;;;;5015985;28;20049;-76
2022/05/25 01:18:04;;;;;;;13.55;6.80;;;8.50;99.90;;;;;;5016315;28;20100;-76
2022/05/25 01:20:37;;;;;;;14.52;7.97;;;8.60;99.90;;;;;;5015645;28;20064;-75
2022/05/25 01:23:27;;;;;;;13.25;8.15;;;8.50;99.90;;;;;;5015994;28;20054;-75
2022/05/25 01:26:42;;;;;;;10.40;7.53;;;8.40;99.90;;;;;;5033904;28;20100;-74
2022/05/25 01:29:41;;;;;;;12.20;8.48;;;8.50;99.90;;;;;;5015578;28;20041;-74
2022/05/25 01:32:15;;;;;;;10.95;7.28;;;8.40;99.90;;;;;;5019473;28;20057;-74
2022/05/25 01:34:48;;;;;;;11.55;8.10;;;8.40;99.90;;;;;;5014605;28;20057;-75
2022/05/25 01:37:20;;;;;;;10.02;7.65;;;8.40;99.90;;;;;;5015831;28;20171;-74
2022/05/25 01:39:54;;;;;;;13.38;7.25;;;8.40;99.90;;;;;;5033207;28;20045;-75
2022/05/25 01:42:25;;;;;;;10.65;7.82;;;8.40;99.90;;;;;;5014866;28;20111;-74
2022/05/25 01:44:56;;;;;;;10.75;7.45;;;8.30;99.90;;;;;;5032635;28;20069;-74
2022/05/25 01:47:26;;;;;;;;;;;8.30;99.90;;;;;;5019165;28;20086;-75
2022/05/25 01:49:56;;;;;;;10.77;8.02;;;8.30;99.90;;;;;;5014794;28;19972;-75
2022/05/25 01:52:26;;;;;;;14.25;8.23;;;8.30;99.90;;;;;;5015723;28;20139;-75
2022/05/25 01:54:56;;;;;;;13.93;9.18;;;8.20;99.90;;;;;;5031975;28;20107;-74
2022/05/25 01:57:25;;;;;;;;;;;8.20;99.90;;;;;;5033877;28;20115;-75
2022/05/25 01:59:52;;;;;;;14.10;8.55;;;8.20;99.90;;;;;;5033097;28;19925;-75
2022/05/25 02:05:08;;;;;;;11.20;8.52;;;8.20;99.90;;;;;;5032596;28;20513;-75
2022/05/25 02:07:48;;;;;;;14.07;8.77;;;8.20;99.90;;;;;;5015539;28;20103;-74
2022/05/25 02:10:26;;;;;;;12.73;9.57;;;8.20;99.90;;;;;;5014175;28;20567;-75
2022/05/25 02:13:03;;;;;;;12.35;9.70;;;8.20;99.90;;;;;;5032900;28;20053;-74
2022/05/25 02:15:39;;;;;;;13.13;9.85;;;8.20;99.90;;;;;;5014571;28;20130;-76
2022/05/25 02:18:10;;;;;;;15.57;10.35;;;8.20;99.90;;;;;;5014903;28;20092;-76
2022/05/25 02:20:48;;;;;;;20.92;10.95;;;8.20;99.90;;;;;;5032857;28;20107;-75
2022/05/25 02:23:19;;;;;;;16.45;10.63;;;8.20;99.90;;;;;;5014054;28;20107;-74
2022/05/25 02:25:51;;;;;;;17.40;11.95;;;8.20;99.90;;;;;;5015227;28;20088;-75
2022/05/25 02:28:31;;;;;;;14.57;10.95;;;8.20;99.90;;;;;;5014994;28;20108;-75
2022/05/25 02:31:01;;;;;;;15.75;11.25;;;8.10;99.90;;;;;;5014001;28;20100;-75
2022/05/25 02:33:31;;;;;;;18.48;11.30;;;8.10;99.90;;;;;;5014939;28;20053;-76
2022/05/25 02:36:00;;;;;;;15.48;10.98;;;8.20;99.90;;;;;;5014570;28;20049;-75
2022/05/25 02:38:28;;;;;;;17.63;11.88;;;8.10;99.90;;;;;;5031552;28;20497;-75
2022/05/25 02:41:04;;;;;;;16.67;12.05;;;8.10;99.90;;;;;;5015172;28;20505;-75
2022/05/25 02:43:31;;;;;;;17.30;12.20;;;8.10;99.90;;;;;;5031950;28;20191;-76
2022/05/25 02:45:58;;;;;;;15.35;11.98;;;8.10;99.90;;;;;;5014184;28;20064;-76
2022/05/25 02:48:25;;;;;;;17.00;11.52;;;8.10;99.90;;;;;;5014935;28;20137;-76
2022/05/25 02:50:52;;;;;;;15.95;12.40;;;8.10;99.90;;;;;;5032281;28;20057;-77
2022/05/25 02:53:22;;;;;;;16.85;11.98;;;8.00;99.90;;;;;;5031980;28;20138;-78
2022/05/25 02:55:49;;;;;;;17.90;12.60;;;8.00;99.90;;;;;;5032553;28;20061;-78
2022/05/25 02:58:16;;;;;;;14.70;11.70;;;8.00;99.90;;;;;;5014241;28;20127;-78
2022/05/25 03:00:42;;;;;;;24.20;13.85;;;7.90;99.90;;;;;;5015264;28;20456;-78
2022/05/25 03:03:11;;;;;;;19.80;13.75;;;8.00;99.90;;;;;;5032832;28;20093;-80
2022/05/25 03:05:38;;;;;;;19.60;13.45;;;8.00;99.90;;;;;;5014350;28;20061;-80
2022/05/25 03:08:06;;;;;;;17.50;12.02;;;7.90;99.90;;;;;;5032651;28;20099;-80
2022/05/25 03:10:34;;;;;;;18.50;13.55;;;7.90;99.90;;;;;;5015123;28;20397;-79
2022/05/25 03:13:01;;;;;;;16.63;12.38;;;7.90;99.90;;;;;;5032042;28;20071;-80
2022/05/25 03:15:28;;;;;;;21.67;12.75;;;7.90;99.90;;;;;;5016119;28;20085;-76
2022/05/25 03:17:55;;;;;;;18.65;14.05;;;7.90;99.90;;;;;;5018229;28;20096;-76
2022/05/25 03:20:22;;;;;;;18.55;12.93;;;7.90;99.90;;;;;;5035012;28;20452;-76
2022/05/25 03:22:49;;;;;;;23.50;14.52;;;8.00;99.90;;;;;;5035774;28;20129;-74
2022/05/25 03:25:16;;;;;;;18.83;14.05;;;7.90;99.90;;;;;;5017619;28;20460;-71
2022/05/25 03:27:45;;;;;;;19.23;13.40;;;8.00;99.90;;;;;;5034939;28;20517;-72
2022/05/25 03:30:15;;;;;;;19.60;12.63;;;7.90;99.90;;;;;;5035123;28;20053;-73
2022/05/25 03:32:42;;;;;;;23.27;15.07;;;8.00;99.90;;;;;;5018185;28;20049;-73
2022/05/25 03:35:10;;;;;;;18.45;13.82;;;7.90;99.90;;;;;;5017087;28;20083;-72
2022/05/25 03:37:37;;;;;;;19.38;14.18;;;7.90;99.90;;;;;;5017593;28;20107;-73
2022/05/25 03:40:05;;;;;;;22.70;14.43;;;8.00;99.90;;;;;;5035201;28;20049;-72
2022/05/25 03:42:32;;;;;;;20.40;14.85;;;8.00;99.90;;;;;;5034767;28;20053;-73
2022/05/25 03:45:02;;;;;;;21.10;15.10;;;8.00;99.90;;;;;;5034802;28;20528;-72
2022/05/25 03:47:28;;;;;;;24.63;14.27;;;8.00;99.90;;;;;;5034554;28;20057;-75
2022/05/25 03:49:55;;;;;;;22.90;15.50;;;8.00;99.90;;;;;;5017320;28;20046;-76
2022/05/25 03:52:23;;;;;;;20.10;14.18;;;8.10;99.90;;;;;;5035386;28;20417;-75
2022/05/25 03:54:50;;;;;;;20.90;14.27;;;8.10;99.90;;;;;;5016547;28;20111;-75
2022/05/25 03:57:16;;;;;;;25.20;15.40;;;8.10;99.90;;;;;;5017534;28;20645;-76
2022/05/25 03:59:45;;;;;;;23.42;14.48;;;8.10;99.90;;;;;;5017071;28;20049;-77
2022/05/25 04:02:13;;;;;;;22.52;14.38;;;8.20;99.90;;;;;;5016750;28;20061;-76
2022/05/25 04:04:40;;;;;;;20.48;14.65;;;8.20;99.90;;;;;;5017428;28;20191;-76
2022/05/25 04:07:07;;;;;;;23.77;14.98;;;8.20;99.90;;;;;;5034852;28;20057;-76
2022/05/25 04:09:34;;;;;;;21.30;14.68;;;8.60;99.90;;;;;;5033882;28;20548;-76
2022/05/25 04:12:01;;;;;;;19.35;13.68;;;9.00;99.90;;;;;;5034952;28;20053;-76
2022/05/25 04:14:28;;;;;;;22.33;14.73;;;8.30;99.90;;;;;;5034712;28;20131;-75
2022/05/25 04:16:55;;;;;;;23.52;15.73;;;8.30;99.90;;;;;;5016604;28;20456;-75
2022/05/25 04:19:23;;;;;;;24.33;14.23;;;8.30;99.90;;;;;;5017222;28;20045;-75
2022/05/25 04:21:49;;;;;;;20.05;13.30;;;8.40;99.90;;;;;;5016351;28;20103;-76
2022/05/25 04:24:16;;;;;;;20.42;14.07;;;8.40;99.90;;;;;;5016556;28;20096;-76
2022/05/25 04:26:43;;;;;;;22.33;13.77;;;8.50;99.90;;;;;;5034666;28;20057;-76
2022/05/25 04:29:10;;;;;;;18.52;13.45;;;8.50;99.90;;;;;;5016555;28;20508;-76
2022/05/25 04:31:37;;;;;;;21.73;14.40;;;8.60;99.90;;;;;;5033474;28;20139;-76
2022/05/25 04:34:04;;;;;;;20.15;14.27;;;8.60;99.90;;;;;;5034203;28;20096;-75
2022/05/25 04:36:32;;;;;;;22.08;13.60;;;8.70;99.90;;;;;;4996354;28;20103;-74
2022/05/25 04:38:59;;;;;;;20.42;13.27;;;8.70;99.90;;;;;;5014457;28;20049;-75
2022/05/25 04:41:25;;;;;;;17.80;12.98;;;8.80;99.90;;;;;;4997426;28;20124;-74
2022/05/25 04:43:52;;;;;;;18.00;13.50;;;8.90;99.90;;;;;;5023399;28;20518;-76
2022/05/25 04:46:19;;;;;;;17.75;13.00;;;9.00;99.90;;;;;;5016378;28;20091;-78
2022/05/25 04:48:46;;;;;;;17.55;13.00;;;9.00;99.90;;;;;;5016700;28;20105;-77
2022/05/25 04:51:14;;;;;;;18.67;13.07;;;9.10;99.90;;;;;;5015475;28;20057;-76
2022/05/25 04:53:43;;;;;;;24.10;13.13;;;9.20;99.90;;;;;;5016677;28;20080;-76
2022/05/25 04:58:54;;;;;;;16.55;12.10;;;9.30;99.90;;;;;;5033370;28;20049;-75
2022/05/25 05:01:22;;;;;;;19.50;12.00;;;9.60;99.90;;;;;;5033437;28;20049;-74
2022/05/25 05:03:49;;;;;;;17.25;12.93;;;9.80;99.90;;;;;;5013782;28;20045;-75
2022/05/25 05:06:16;;;;;;;17.20;11.52;;;9.70;99.90;;;;;;5013607;28;20174;-75
2022/05/25 05:08:44;;;;;;;20.48;12.45;;;9.80;99.90;;;;;;5016601;28;20049;-74
2022/05/25 05:11:13;;;;;;;16.65;11.55;;;9.90;99.90;;;;;;5015551;28;20085;-75
2022/05/25 05:13:40;;;;;;;16.52;11.48;;;10.10;99.90;;;;;;5033433;28;20111;-74
2022/05/25 05:16:09;;;;;;;15.43;12.13;;;10.20;99.90;;;;;;5033408;28;20458;-74
2022/05/25 05:18:37;;;;;;;15.05;11.15;;;10.40;99.90;;;;;;5033145;28;20108;-76
2022/05/25 05:21:04;;;;;;;14.45;11.88;;;10.60;99.90;;;;;;5032785;28;20482;-74
2022/05/25 05:23:31;;;;;;;15.98;11.00;;;10.90;99.90;;;;;;5015829;28;20552;-74
2022/05/25 05:25:59;;;;;;;18.60;11.38;;;10.90;99.90;;;;;;5014740;28;20100;-75
2022/05/25 05:28:31;;;;;;;15.98;10.55;;;11.00;99.90;;;;;;5033845;28;20057;-75
2022/05/25 05:30:59;;;;;;;16.25;10.82;;;11.20;99.90;;;;;;5010227;28;20136;-74
2022/05/25 05:33:27;;;;;;;15.57;10.88;;;11.40;99.90;;;;;;5008981;28;20532;-73
2022/05/25 05:35:59;;;;;;;17.63;11.65;;;11.70;99.90;;;;;;5010083;28;20085;-74
2022/05/25 05:38:27;;;;;;;14.52;10.07;;;12.00;99.90;;;;;;5017562;28;20049;-74
2022/05/25 05:40:54;;;;;;;12.38;8.90;;;12.30;99.90;;;;;;5027913;28;20387;-74
2022/05/25 05:43:23;;;;;;;13.48;8.88;;;12.40;99.90;;;;;;5024751;28;20100;-74
2022/05/25 05:45:53;;;;;;;13.82;10.25;;;12.70;99.90;;;;;;5023643;28;20049;-73
2022/05/25 05:48:22;;;;;;;14.68;9.50;;;12.70;99.90;;;;;;5002242;28;20049;-73
2022/05/25 05:50:54;;;;;;;12.20;8.85;;;12.80;99.90;;;;;;5028826;28;20084;-74
2022/05/25 05:53:22;;;;;;;18.77;8.95;;;13.00;99.90;;;;;;5025555;28;20050;-74
2022/05/25 05:55:49;;;;;;;12.70;9.10;;;13.10;99.90;;;;;;5024625;28;20095;-74
2022/05/25 05:58:16;;;;;;;13.45;8.32;;;13.30;99.90;;;;;;5010012;28;20103;-74
2022/05/25 06:00:45;;;;;;;14.45;9.10;;;13.50;99.90;;;;;;5030971;28;20203;-73
2022/05/25 06:03:12;;;;;;;10.60;7.88;;;13.70;99.90;;;;;;5008962;28;20049;-74
2022/05/25 06:05:39;;;;;;;12.85;7.78;;;13.90;99.90;;;;;;5025886;28;20064;-75
2022/05/25 06:08:08;;;;;;;10.30;8.20;;;14.00;99.90;;;;;;5008921;28;20057;-74
2022/05/25 06:10:35;;;;;;;9.05;7.13;;;14.00;99.90;;;;;;5004426;28;20040;-73
2022/05/25 06:13:02;;;;;;;11.02;8.27;;;14.00;99.90;;;;;;5022355;28;20053;-75
2022/05/25 06:20:55;;;;;;;10.95;7.32;;;14.30;99.90;;;;;;4969143;28;20469;-74
2022/05/25 06:23:22;;;;;;;11.18;7.32;;;14.40;99.90;;;;;;5026227;28;20089;-75
2022/05/25 06:25:49;;;;;;;8.50;6.60;;;14.70;99.90;;;;;;5025740;28;22334;-75
2022/05/25 06:28:16;;;;;;;15.13;7.32;;;14.90;99.90;;;;;;5009847;28;20049;-75
2022/05/25 06:30:44;;;;;;;12.50;7.30;;;15.10;99.90;;;;;;5008781;28;20216;-74
2022/05/25 06:33:11;;;;;;;12.95;6.72;;;15.20;99.90;;;;;;5007649;28;20092;-73
2022/05/25 06:35:40;;;;;;;12.43;6.70;;;15.40;99.90;;;;;;5025002;28;20108;-74
2022/05/25 06:38:06;;;;;;;9.45;5.97;;;15.50;99.90;;;;;;5004282;28;20050;-74
2022/05/25 06:40:33;;;;;;;11.73;5.85;;;15.60;99.90;;;;;;5026697;28;20046;-75
2022/05/25 06:43:00;;;;;;;9.75;6.53;;;15.80;99.90;;;;;;5023078;28;20482;-74
2022/05/25 06:45:27;;;;;;;9.27;6.43;;;15.90;99.90;;;;;;5024250;28;20041;-75
2022/05/25 06:47:55;;;;;;;9.45;4.97;;;16.10;99.90;;;;;;5008476;28;20147;-75
2022/05/25 06:50:22;;;;;;;12.80;5.65;;;16.40;99.90;;;;;;5027486;28;20053;-75
2022/05/25 06:52:52;;;;;;;12.55;5.63;;;16.50;99.90;;;;;;5013245;28;20049;-75
2022/05/25 06:55:19;;;;;;;13.80;6.17;;;16.90;99.90;;;;;;5029573;28;20054;-75
2022/05/25 06:57:46;;;;;;;8.30;4.72;;;17.10;99.90;;;;;;5009498;28;20063;-75
2022/05/25 07:00:14;;;;;;;9.93;5.50;;;17.30;99.90;;;;;;5016371;28;20405;-73
2022/05/25 07:02:41;;;;;;;8.00;4.55;;;17.70;99.90;;;;;;5028476;28;20100;-75
2022/05/25 07:05:08;;;;;;;10.38;6.15;;;17.90;99.90;;;;;;5027329;28;20107;-75
2022/05/25 07:07:37;;;;;;;11.20;5.63;;;18.30;99.90;;;;;;5028554;28;20103;-76
2022/05/25 07:10:06;;;;;;;9.27;4.78;;;18.70;99.90;;;;;;5010096;28;20051;-74
2022/05/25 07:12:33;;;;;;;5.85;4.28;;;18.70;99.90;;;;;;5025835;28;20041;-76
2022/05/25 07:15:00;;;;;;;7.60;5.22;;;18.90;99.90;;;;;;5011068;28;20053;-75
2022/05/25 07:17:28;;;;;;;7.07;4.43;;;19.00;99.90;;;;;;5030526;28;20045;-76
2022/05/25 07:19:55;;;;;;;8.27;4.75;;;19.20;99.90;;;;;;5010609;28;20088;-74
2022/05/25 07:22:22;;;;;;;9.70;4.93;;;19.20;99.90;;;;;;5013552;28;20042;-75
2022/05/25 07:24:48;;;;;;;6.85;4.65;;;19.40;99.90;;;;;;5008585;28;20095;-75
2022/05/25 07:27:17;;;;;;;8.63;4.22;;;19.70;99.90;;;;;;5025631;28;20053;-74
2022/05/25 07:29:44;;;;;;;12.23;3.92;;;19.70;99.90;;;;;;5021502;28;20054;-74
2022/05/25 07:32:13;;;;;;;7.10;3.88;;;20.00;99.90;;;;;;5012351;28;20119;-74
2022/05/25 07:34:43;;;;;;;5.90;3.95;;;20.40;99.90;;;;;;5009439;28;20049;-75
2022/05/25 07:37:15;;;;;;;7.55;4.07;;;20.50;99.90;;;;;;4991911;28;20045;-74
2022/05/25 07:39:53;;;;;;;6.85;4.38;;;20.60;99.90;;;;;;4991584;28;20054;-74
2022/05/25 07:42:22;;;;;;;4.82;3.45;;;20.80;99.90;;;;;;5006560;28;20502;-73
2022/05/25 07:44:54;;;;;;;5.57;3.65;;;21.00;99.90;;;;;;5008947;28;20051;-76
2022/05/25 07:47:22;;;;;;;7.60;4.20;;;21.00;99.90;;;;;;5011178;28;20046;-77
2022/05/25 07:49:48;;;;;;;8.75;3.58;;;21.00;99.90;;;;;;5008100;28;20385;-75
2022/05/25 07:52:16;;;;;;;4.85;3.20;;;21.10;99.90;;;;;;4992438;28;20046;-76
2022/05/25 07:54:43;;;;;;;8.40;3.20;;;20.70;99.90;;;;;;5007755;28;20054;-76
2022/05/25 07:57:11;;;;;;;5.07;3.08;;;21.20;99.90;;;;;;4991814;28;20054;-76
2022/05/25 07:59:39;;;;;;;6.32;3.20;;;21.30;99.90;;;;;;4999084;28;20084;-77
2022/05/25 08:07:46;;;;;;;7.95;3.70;;;20.50;99.60;;;;;;4987423;28;20042;-76
2022/05/25 08:10:16;;;;;;;6.35;3.10;;;20.80;99.10;;;;;;4990779;28;20038;-75
2022/05/25 08:12:43;;;;;;;;;;;21.00;98.40;;;;;;5007298;28;20402;-76
2022/05/25 08:15:13;;;;;;;5.50;3.55;;;20.80;97.20;;;;;;5008736;28;19929;-76
2022/05/25 08:17:40;;;;;;;4.47;3.50;;;21.10;98.90;;;;;;5010919;28;20050;-76
2022/05/25 08:20:10;;;;;;;6.60;3.90;;;21.60;98.50;;;;;;4994064;28;20522;-77
2022/05/25 08:22:38;;;;;;;4.38;3.00;;;21.70;98.00;;;;;;4990903;28;20060;-75
2022/05/25 08:25:06;;;;;;;6.00;3.53;;;21.90;98.00;;;;;;5008222;28;20050;-78
2022/05/25 08:27:33;;;;;;;5.47;3.50;;;22.00;97.40;;;;;;5006648;28;20639;-75
2022/05/25 08:30:00;;;;;;;5.43;3.67;;;22.10;96.70;;;;;;4999730;28;20075;-75
2022/05/25 08:32:28;;;;;;;6.22;3.22;;;21.90;96.20;;;;;;5014734;28;20045;-76
2022/05/25 08:34:54;;;;;;;6.18;2.67;;;21.70;96.30;;;;;;5028803;28;20251;-76
2022/05/25 08:37:21;;;;;;;4.30;3.10;;;22.00;95.40;;;;;;5012466;28;20465;-77
2022/05/25 08:39:48;;;;;;;4.40;2.80;;;22.00;94.70;;;;;;5009446;28;20622;-77
2022/05/25 08:42:19;;;;;;;6.65;3.40;;;22.40;94.70;;;;;;5021110;28;20728;-76
2022/05/25 08:44:47;;;;;;;3.88;2.70;;;22.40;94.10;;;;;;5016613;28;20050;-77
2022/05/25 08:47:15;;;;;;;3.78;2.65;;;22.80;93.20;;;;;;5004230;28;20076;-77
2022/05/25 08:49:45;;;;;;;4.03;2.83;;;22.80;91.90;;;;;;5013084;28;20086;-77
2022/05/25 08:52:23;;;;;;;4.55;2.80;;;22.80;91.20;;;;;;5011762;28;20494;-77
2022/05/25 08:54:50;;;;;;;4.35;2.50;;;22.70;91.40;;;;;;5020037;28;20053;-75
2022/05/25 08:57:22;;;;;;;3.85;2.63;;;22.80;91.70;;;;;;4995198;28;20054;-76
2022/05/25 08:59:52;;;;;;;3.25;2.35;;;22.90;90.50;;;;;;5010428;28;20058;-77
2022/05/25 09:02:28;;;;;;;4.68;2.90;;;22.70;90.30;;;;;;5029644;28;20132;-77
2022/05/25 09:05:03;;;;;;;3.83;2.90;;;22.40;90.60;;;;;;5013544;28;20999;-76
2022/05/25 09:07:39;;;;;;;4.30;2.60;;;22.30;89.80;;;;;;5031223;28;20049;-76
2022/05/25 09:10:07;;;;;;;4.53;2.33;;;21.90;88.60;;;;;;5009797;28;20045;-76
2022/05/25 09:12:39;;;;;;;5.47;2.25;;;21.50;90.50;;;;;;5009168;28;20108;-76
2022/05/25 09:15:11;;;;;;;13.88;2.55;;;21.30;90.60;;;;;;4995937;28;20077;-76
2022/05/25 09:17:45;;;;;;;4.43;2.35;;;21.20;91.30;;;;;;4996251;28;20453;-76
2022/05/25 09:20:22;;;;;;;3.78;2.83;;;21.10;91.10;;;;;;5010882;28;20067;-75
2022/05/25 09:22:48;;;;;;;4.70;2.85;;;21.10;91.40;;;;;;5013877;28;20084;-75
2022/05/25 09:25:17;;;;;;;4.93;2.25;;;21.10;91.70;;;;;;4993381;28;20077;-76
2022/05/25 09:27:53;;;;;;;4.78;2.33;;;21.60;91.60;;;;;;4998727;28;20080;-77
2022/05/25 09:30:20;;;;;;;4.57;2.70;;;22.20;90.50;;;;;;5032693;28;20405;-76
2022/05/25 09:32:52;;;;;;;4.13;2.67;;;22.60;91.10;;;;;;5015112;28;20109;-75
2022/05/25 09:35:25;;;;;;;5.13;2.78;;;22.60;90.10;;;;;;5017434;28;20058;-76
2022/05/25 09:37:56;;;;;;;4.93;2.70;;;22.50;88.20;;;;;;5001787;28;20112;-76
2022/05/25 09:40:25;;;;;;;3.13;2.13;;;21.90;87.90;;;;;;4995986;28;20054;-76
2022/05/25 09:42:56;;;;;;;4.13;2.65;;;21.30;90.00;;;;;;5011106;28;20219;-75
2022/05/25 09:45:23;;;;;;;4.95;2.83;;;20.80;90.80;;;;;;4998562;28;20132;-74
2022/05/25 09:47:52;;;;;;;4.18;2.80;;;20.50;91.40;;;;;;5009524;28;20285;-75
2022/05/25 09:50:32;;;;;;;4.45;3.00;;;20.10;92.00;;;;;;5009993;28;20185;-75
2022/05/25 09:53:04;;;;;;;6.15;2.90;;;20.10;92.60;;;;;;5010649;28;20108;-75
2022/05/25 09:55:35;;;;;;;4.03;2.70;;;20.20;93.10;;;;;;5011445;28;20387;-75
2022/05/25 09:58:06;;;;;;;4.03;3.03;;;20.30;93.20;;;;;;5013657;28;20054;-75
2022/05/25 10:00:51;;;;;;;6.82;2.53;;;20.30;93.20;;;;;;5008738;28;20045;-75
2022/05/25 10:03:29;;;;;;;3.58;2.60;;;20.40;93.20;;;;;;4994577;28;20518;-77
2022/05/25 10:05:58;;;;;;;7.15;2.70;;;20.50;93.30;;;;;;5024758;28;20111;-75
2022/05/25 10:08:32;;;;;;;4.40;3.25;;;21.00;93.00;;;;;;4999855;28;20104;-77
2022/05/25 10:11:27;;;;;;;9.27;2.88;;;21.30;91.90;;;;;;4993263;28;20108;-78
2022/05/25 10:13:56;;;;;;;4.05;3.13;;;21.20;91.80;;;;;;5011877;28;20129;-76
2022/05/25 10:16:26;;;;;;;6.13;2.80;;;20.90;91.40;;;;;;5010377;28;20050;-76
2022/05/25 10:18:52;;;;;;;5.57;3.20;;;20.30;91.80;;;;;;5011859;28;20112;-78
2022/05/25 10:21:29;;;;;;;5.55;3.42;;;19.90;92.80;;;;;;5026470;28;20049;-78
2022/05/25 10:23:57;;;;;;;6.35;3.35;;;19.50;93.50;;;;;;5029236;28;20053;-78
2022/05/25 10:26:37;;;;;;;6.05;3.67;;;19.20;94.00;;;;;;5006030;28;20058;-78
2022/05/25 10:29:08;;;;;;;5.03;3.70;;;18.80;95.10;;;;;;5013385;28;20108;-76
2022/05/25 10:37:23;;;;;;;8.57;4.10;;;18.40;97.20;;;;;;5007820;28;20095;-82
2022/05/25 10:40:00;;;;;;;5.97;3.47;;;18.40;98.10;;;;;;5018475;28;20065;-77
2022/05/25 10:42:29;;;;;;;5.22;3.78;;;18.40;98.50;;;;;;5024536;28;20452;-78
2022/05/25 10:45:05;;;;;;;6.18;3.85;;;18.30;97.70;;;;;;5030705;28;20072;-78
2022/05/25 10:47:54;;;;;;;6.40;3.35;;;18.20;97.50;;;;;;5015364;28;20120;-80
2022/05/25 10:50:26;;;;;;;8.18;3.78;;;18.20;98.30;;;;;;5015419;28;20053;-78
2022/05/25 10:53:02;;;;;;;7.00;3.70;;;18.10;98.00;;;;;;5021612;28;20049;-78
2022/05/25 10:55:34;;;;;;;4.57;3.95;;;17.90;98.50;;;;;;5013642;28;20096;-79
2022/05/25 10:58:27;;;;;;;6.18;3.60;;;17.70;99.00;;;;;;5023214;28;20050;-79
2022/05/25 11:01:17;;;;;;;8.43;4.15;;;17.40;99.60;;;;;;5002315;28;20494;-79
2022/05/25 11:04:01;;;;;;;12.32;5.78;;;17.20;99.90;;;;;;5031703;28;20472;-79
2022/05/25 11:06:43;;;;;;;10.75;5.90;;;16.90;99.90;;;;;;5013802;28;20077;-79
2022/05/25 11:09:37;;;;;;;7.43;5.65;;;16.40;99.90;;;;;;4997839;28;20059;-80
2022/05/25 11:12:12;;;;;;;8.02;4.85;;;15.90;99.90;;;;;;5009628;28;20045;-80
2022/05/25 11:14:57;;;;;;;10.18;5.80;;;15.50;99.90;;;;;;5011285;28;20050;-78
2022/05/25 11:17:48;;;;;;;5.43;3.33;;;15.30;99.90;;;;;;5014147;28;20050;-79
2022/05/25 11:20:21;;;;;;;15.13;3.70;;;15.40;99.90;;;;;;5006492;28;20088;-79
2022/05/25 11:23:10;;;;;;;8.55;3.53;;;15.60;99.90;;;;;;5032348;28;20103;-81
2022/05/25 11:25:54;;;;;;;5.30;3.80;;;16.00;99.90;;;;;;5017454;28;20509;-81
2022/05/25 11:28:35;;;;;;;4.95;3.70;;;16.50;99.90;;;;;;5018760;28;20053;-80
2022/05/25 11:31:14;;;;;;;4.20;3.65;;;17.10;99.90;;;;;;5017284;28;20103;-81
2022/05/25 11:33:53;;;;;;;5.13;3.67;;;17.70;99.90;;;;;;5035513;28;20056;-80
2022/05/25 11:36:33;;;;;;;5.78;4.03;;;18.00;99.90;;;;;;5018063;28;20451;-81
2022/05/25 11:39:11;;;;;;;4.20;3.77;;;18.20;99.90;;;;;;5018240;28;20509;-80
2022/05/25 11:41:47;;;;;;;6.90;4.55;;;18.40;99.90;;;;;;5018470;28;20056;-80
2022/05/25 11:44:39;;;;;;;7.85;4.65;;;19.00;99.90;;;;;;5019559;28;20050;-81
2022/05/25 11:47:18;;;;;;;7.63;4.15;;;19.90;99.90;;;;;;5034769;28;20053;-79
2022/05/25 11:50:11;;;;;;;6.70;4.17;;;20.40;99.90;;;;;;5018683;28;20146;-78
2022/05/25 11:53:18;;;;;;;6.60;4.32;;;20.40;99.90;;;;;;5035861;28;20041;-79
2022/05/25 11:55:54;;;;;;;5.47;4.22;;;20.60;99.90;;;;;;5029688;28;20053;-79
2022/05/25 11:58:33;;;;;;;7.53;5.40;;;20.40;99.90;;;;;;5017822;28;20092;-78
2022/05/25 12:01:08;;;;;;;5.70;4.20;;;20.10;99.90;;;;;;5035018;28;20050;-78
2022/05/25 12:04:19;;;;;;;6.57;4.57;;;19.70;99.90;;;;;;5017729;28;20072;-79
2022/05/25 12:06:59;;;;;;;;;;;19.10;99.90;;;;;;5035662;28;20111;-79
2022/05/25 12:09:38;;;;;;;5.78;4.95;;;18.50;99.90;;;;;;5035683;28;19929;-79
2022/05/25 12:12:14;;;;;;;8.05;5.22;;;18.60;99.90;;;;;;5035225;28;20133;-79
2022/05/25 12:14:55;;;;;;;5.43;4.47;;;18.90;99.90;;;;;;5017041;28;20096;-79
2022/05/25 12:17:29;;;;;;;5.28;3.65;;;19.30;99.90;;;;;;5017428;28;20084;-79
2022/05/25 12:19:59;;;;;;;7.57;3.72;;;19.70;99.90;;;;;;5016960;28;20115;-78
2022/05/25 12:22:32;;;;;;;5.22;3.25;;;20.00;99.60;;;;;;5034579;28;20072;-79
2022/05/25 12:25:04;;;;;;;3.83;2.45;;;20.30;98.90;;;;;;5017318;28;20501;-79
2022/05/25 12:27:40;;;;;;;4.30;2.63;;;20.40;97.10;;;;;;5034422;28;20085;-78
2022/05/25 12:30:12;;;;;;;4.70;2.80;;;20.20;97.00;;;;;;5034107;28;20068;-78
2022/05/25 12:32:41;;;;;;;6.15;2.80;;;20.10;97.30;;;;;;5016927;28;20046;-79
2022/05/25 12:35:09;;;;;;;6.57;2.40;;;20.10;97.80;;;;;;5016421;28;20088;-78
2022/05/25 12:37:41;;;;;;;4.03;2.10;;;19.90;97.90;;;;;;5034519;28;20054;-78
2022/05/25 12:40:10;;;;;;;4.10;1.00;;;19.90;97.40;;;;;;5034236;28;20045;-78
2022/05/25 12:42:43;;;;;;;3.05;1.15;;;19.80;95.40;;;;;;5016566;28;20057;-78
2022/05/25 12:48:42;;;;;;;3.55;1.08;;;19.60;92.50;;;;;;5034124;28;20069;-78
2022/05/25 12:51:11;;;;;;;2.42;0.98;;;20.00;91.10;;;;;;5016372;28;20056;-78
2022/05/25 12:53:40;;;;;;;1.88;0.80;;;20.40;90.90;;;;;;5016776;28;20088;-79
2022/05/25 12:56:15;;;;;;;3.25;0.77;;;20.60;88.60;;;;;;5034116;28;20084;-80
2022/05/25 12:58:51;;;;;;;5.07;1.25;;;20.80;89.00;;;;;;5034596;28;20064;-78
2022/05/25 13:01:36;;;;;;;2.85;0.95;;;21.30;86.20;;;;;;5033953;28;20049;-79
2022/05/25 13:04:42;;;;;;;3.20;1.10;;;21.50;84.10;;;;;;5016117;28;20064;-80
2022/05/25 13:07:36;;;;;;;2.15;0.75;;;21.60;81.70;;;;;;5016674;28;20104;-80
2022/05/25 13:10:09;;;;;;;3.45;0.90;;;21.50;81.00;;;;;;5016506;28;20405;-79
2022/05/25 13:12:46;;;;;;;2.20;0.82;;;21.30;79.30;;;;;;5015932;28;20099;-78
2022/05/25 13:15:43;;;;;;;2.90;0.80;;;21.00;78.20;;;;;;5016377;28;20132;-80
2022/05/25 13:18:47;;;;;;;3.00;0.70;;;20.50;78.80;;;;;;5016265;28;20087;-79
2022/05/25 13:21:37;;;;;;;3.80;1.02;;;20.60;78.60;;;;;;5016350;28;20127;-79
2022/05/25 13:24:36;;;;;;;4.15;0.85;;;20.60;78.30;;;;;;5033898;28;20049;-79
2022/05/25 13:27:40;;;;;;;2.25;0.70;;;20.20;78.80;;;;;;5016460;28;20049;-79
2022/05/25 13:30:23;;;;;;;4.03;0.88;;;19.80;80.00;;;;;;5035294;28;20116;-79
2022/05/25 13:32:52;;;;;;;3.10;0.73;;;19.50;78.80;;;;;;5015961;28;20128;-79
2022/05/25 13:35:46;;;;;;;3.60;0.90;;;19.40;79.20;;;;;;5034155;28;20049;-79